This is the latest recevied weather packets stored in our database for station/object AE5TC. If no packets are shown the sender has not sent any weather packets the latest 10 day(s).
| Time | Temp. | Humidity | Pressure | Rain* | Wind** | Luminosity | Snow |
|---|---|---|---|---|---|---|---|
| 1777401782 | 26.11° C | 79% | 1019.3 hPa | 0 mm | - | 919 W/m² | - |
| 1777401477 | 26.11° C | 80% | 1019.4 hPa | 0 mm | - | 296 W/m² | - |
| 1777401173 | 26.67° C | 79% | 1019.3 hPa | 0 mm | - | 326 W/m² | - |
| 1777400869 | 26.67° C | 77% | 1019.5 hPa | 0 mm | - | 679 W/m² | - |
| 1777400565 | 26.67° C | 78% | 1019.6 hPa | 0 mm | - | 545 W/m² | - |
| 1777400263 | 26.67° C | 78% | 1019.3 hPa | 0 mm | - | 761 W/m² | - |
| 1777399958 | 27.22° C | 76% | 1019.2 hPa | 0 mm | - | 526 W/m² | - |
| 1777399655 | 26.67° C | 76% | 1019.3 hPa | 0 mm | - | 370 W/m² | - |
| 1777399352 | 26.67° C | 79% | 1019.4 hPa | 0 mm | - | 788 W/m² | - |
| 1777399050 | 26.67° C | 79% | 1019.4 hPa | 0 mm | - | 1027 W/m² | - |
| 1777398747 | 26.11° C | 80% | 1019.6 hPa | 0 mm | - | 465 W/m² | - |
| 1777398444 | 26.11° C | 80% | 1019.5 hPa | 0 mm | - | 359 W/m² | - |
| 1777398141 | 26.11° C | 81% | 1019.4 hPa | 0 mm | - | 607 W/m² | - |
| 1777397837 | 26.11° C | 79% | 1019.5 hPa | 0 mm | - | 578 W/m² | - |
| 1777397533 | 26.11° C | 79% | 1019.7 hPa | 0 mm | - | 1074 W/m² | - |
| 1777397229 | 25.56° C | 81% | 1019.7 hPa | 0 mm | - | 723 W/m² | - |
| 1777396926 | 26.11° C | 80% | 1019.7 hPa | 0 mm | - | 434 W/m² | - |
| 1777396622 | 25.56° C | 82% | 1020.1 hPa | 0 mm | - | 416 W/m² | - |
| 1777396319 | 25.56° C | 82% | 1019.9 hPa | 0 mm | - | 541 W/m² | - |
| 1777396015 | 25.56° C | 84% | 1019.9 hPa | 0 mm | - | 549 W/m² | - |
| 1777395710 | 25.56° C | 83% | 1020 hPa | 0 mm | - | 452 W/m² | - |
| 1777395406 | 25° C | 82% | 1020.1 hPa | 0 mm | - | 1032 W/m² | - |
| 1777395104 | 25° C | 82% | 1020.3 hPa | 0 mm | - | 406 W/m² | - |
| 1777394801 | 25° C | 83% | 1020.4 hPa | 0 mm | - | 397 W/m² | - |
| 1777394497 | 23.89° C | 86% | 1020.2 hPa | 0 mm | - | 343 W/m² | - |
* Rain latest hour (hover to see other rain measurements)
** Current wind speed in m/s (hover to see current wind gust speed)